createdAt,value
2019-05-26T00:00:29.866Z,12.70
2019-05-26T00:02:59.828Z,13.00
2019-05-26T00:05:29.781Z,13.90
2019-05-26T00:12:58.005Z,12.80
2019-05-26T00:25:24.735Z,13.10
2019-05-26T00:32:53.151Z,12.70
2019-05-26T00:35:23.302Z,13.50
2019-05-26T00:37:53.221Z,12.90
2019-05-26T00:40:23.188Z,12.80
2019-05-26T00:42:53.111Z,12.90
2019-05-26T00:45:23.455Z,12.40
2019-05-26T00:47:53.377Z,12.90
2019-05-26T00:50:23.371Z,12.30
2019-05-26T00:52:56.506Z,12.90
2019-05-26T00:55:25.139Z,12.90
2019-05-26T00:57:55.082Z,12.80
2019-05-26T01:00:42.384Z,13.00
2019-05-26T01:08:11.115Z,12.80
2019-05-26T01:15:39.431Z,12.70
2019-05-26T01:18:09.362Z,12.60
2019-05-26T01:23:08.505Z,12.20
2019-05-26T01:25:38.670Z,12.60
2019-05-26T01:30:39.327Z,12.50
2019-05-26T01:33:09.266Z,12.10
2019-05-26T01:53:09.090Z,13.00
2019-05-26T01:55:39.022Z,12.60
2019-05-26T02:13:04.255Z,12.30
2019-05-26T02:18:03.318Z,12.40
2019-05-26T02:20:33.268Z,12.40
2019-05-26T02:25:32.428Z,12.60
2019-05-26T02:28:02.677Z,12.60
2019-05-26T02:30:32.529Z,12.50
2019-05-26T02:33:02.511Z,11.80
2019-05-26T02:35:32.839Z,12.30
2019-05-26T02:38:02.753Z,12.30
2019-05-26T02:40:32.700Z,12.40
2019-05-26T02:43:03.099Z,12.50
2019-05-26T02:50:31.657Z,12.40
2019-05-26T02:53:01.618Z,12.40
2019-05-26T02:58:00.767Z,13.00
2019-05-26T03:03:11.037Z,12.40
2019-05-26T03:05:43.398Z,12.30
2019-05-26T03:13:17.277Z,12.40
2019-05-26T03:15:48.167Z,12.50
2019-05-26T03:18:18.735Z,12.40
2019-05-26T03:20:48.770Z,12.40
2019-05-26T03:23:19.012Z,12.70
2019-05-26T03:25:48.925Z,12.60
2019-05-26T03:38:15.684Z,12.40
2019-05-26T03:40:45.768Z,12.30
2019-05-26T03:43:15.717Z,12.60
2019-05-26T03:46:05.527Z,12.80
2019-05-26T03:48:35.561Z,12.50
2019-05-26T03:53:34.778Z,12.20
2019-05-26T03:56:04.692Z,11.90
2019-05-26T03:58:34.630Z,12.60
2019-05-26T04:01:04.766Z,12.70
2019-05-26T04:03:34.705Z,12.40
2019-05-26T04:06:05.139Z,12.40
2019-05-26T04:08:35.078Z,12.50
2019-05-26T04:13:35.040Z,12.50
2019-05-26T04:16:05.213Z,12.50
2019-05-26T04:18:35.161Z,12.70
2019-05-26T04:21:05.370Z,12.50
2019-05-26T04:23:35.294Z,13.10
2019-05-26T04:28:34.539Z,12.50
2019-05-26T04:33:33.585Z,12.30
2019-05-26T04:36:03.433Z,12.50
2019-05-26T04:38:33.363Z,12.40
2019-05-26T04:41:03.312Z,12.50
2019-05-26T04:43:33.252Z,12.20
2019-05-26T04:46:03.201Z,12.50
2019-05-26T04:48:33.131Z,12.60
2019-05-26T04:56:01.581Z,13.30
2019-05-26T04:58:31.510Z,12.70
2019-05-26T05:01:01.371Z,12.70
2019-05-26T05:03:31.350Z,12.70
2019-05-26T05:08:30.510Z,12.70
2019-05-26T05:11:00.432Z,12.70
2019-05-26T05:13:31.456Z,12.60
2019-05-26T05:18:31.050Z,13.00
2019-05-26T05:21:01.137Z,13.00
2019-05-26T05:23:31.185Z,13.00
2019-05-26T05:28:30.346Z,12.90
2019-05-26T05:31:00.248Z,12.90
2019-05-26T05:33:31.316Z,13.00
2019-05-26T05:38:30.699Z,13.20
2019-05-26T05:41:00.637Z,13.30
2019-05-26T05:43:30.561Z,13.30
2019-05-26T05:48:29.670Z,13.50
2019-05-26T05:50:59.613Z,13.40
2019-05-26T05:55:58.774Z,14.00
2019-05-26T06:00:57.908Z,13.60
2019-05-26T06:03:27.825Z,13.80
2019-05-26T06:05:57.754Z,14.10
2019-05-26T06:08:27.730Z,13.60
2019-05-26T06:10:57.666Z,13.80
2019-05-26T06:13:27.520Z,13.90
2019-05-26T06:18:27.559Z,14.20
2019-05-26T06:20:59.099Z,14.10
2019-05-26T06:23:29.009Z,14.00
2019-05-26T06:25:58.968Z,14.00
2019-05-26T06:28:29.074Z,14.00
2019-05-26T06:30:59.862Z,14.30
2019-05-26T06:33:29.858Z,13.60
2019-05-26T06:36:00.181Z,13.90
2019-05-26T06:38:30.085Z,14.10
2019-05-26T06:43:29.357Z,14.40
2019-05-26T06:46:02.723Z,14.70
2019-05-26T06:48:32.685Z,14.70
2019-05-26T06:51:03.169Z,14.10
2019-05-26T06:56:02.673Z,14.70
2019-05-26T06:58:34.086Z,14.50
2019-05-26T07:01:04.395Z,14.70
2019-05-26T07:03:34.294Z,14.90
2019-05-26T07:06:04.738Z,14.80
2019-05-26T07:08:34.750Z,14.90
2019-05-26T07:11:04.742Z,15.10
2019-05-26T07:13:34.663Z,15.40
2019-05-26T07:21:03.173Z,15.70
2019-05-26T07:23:33.112Z,16.00
2019-05-26T07:26:03.389Z,15.60
2019-05-26T07:28:33.310Z,15.70
2019-05-26T07:31:03.294Z,15.70
2019-05-26T07:33:33.146Z,15.90
2019-05-26T07:38:32.267Z,15.70
2019-05-26T07:41:02.204Z,15.90
2019-05-26T07:46:01.371Z,16.00
2019-05-26T07:48:35.377Z,16.10
2019-05-26T07:51:02.942Z,16.00
2019-05-26T07:53:33.178Z,16.10
2019-05-26T07:56:03.100Z,16.10
2019-05-26T07:58:33.258Z,16.20
2019-05-26T08:01:03.246Z,16.10
2019-05-26T08:03:33.164Z,16.50
2019-05-26T08:06:03.130Z,16.60
2019-05-26T08:11:02.206Z,16.20
2019-05-26T08:16:01.395Z,16.10
2019-05-26T08:18:31.294Z,16.40
2019-05-26T08:21:01.507Z,16.50
2019-05-26T08:23:31.432Z,16.40
2019-05-26T08:26:01.384Z,16.40
2019-05-26T08:31:00.597Z,17.00
2019-05-26T08:33:30.557Z,17.10
2019-05-26T08:36:00.518Z,17.10
2019-05-26T08:38:30.692Z,17.20
2019-05-26T08:41:00.605Z,17.20
2019-05-26T08:43:30.489Z,17.20
2019-05-26T08:46:00.349Z,17.40
2019-05-26T08:48:30.201Z,17.20
2019-05-26T08:51:00.499Z,17.60
2019-05-26T08:53:31.602Z,17.70
2019-05-26T08:56:01.470Z,17.60
2019-05-26T08:58:31.413Z,17.80
2019-05-26T09:01:01.380Z,17.70
2019-05-26T09:03:32.397Z,17.50
2019-05-26T09:06:02.351Z,17.60
2019-05-26T09:08:32.400Z,17.80
2019-05-26T09:11:02.274Z,18.00
2019-05-26T09:16:01.546Z,18.90
2019-05-26T09:18:31.585Z,19.00
2019-05-26T09:21:01.518Z,20.10
2019-05-26T09:23:31.447Z,20.60
2019-05-26T09:26:01.533Z,21.20
2019-05-26T09:28:31.496Z,21.30
2019-05-26T09:31:01.441Z,21.20
2019-05-26T09:33:32.608Z,21.30
2019-05-26T09:36:02.825Z,19.90
2019-05-26T09:38:32.791Z,19.30
2019-05-26T09:41:02.727Z,19.80
2019-05-26T09:43:32.677Z,20.80
2019-05-26T09:46:02.601Z,20.80
2019-05-26T09:48:32.563Z,20.10
2019-05-26T09:51:02.819Z,20.00
2019-05-26T09:53:32.778Z,20.50
2019-05-26T09:56:02.744Z,20.50
2019-05-26T09:58:32.662Z,21.10
2019-05-26T10:01:02.580Z,21.20
2019-05-26T10:06:01.711Z,22.10
2019-05-26T10:08:31.671Z,23.30
2019-05-26T10:11:01.591Z,23.50
2019-05-26T10:13:32.260Z,23.40
2019-05-26T10:16:02.331Z,23.20
2019-05-26T10:18:32.288Z,22.90
2019-05-26T10:21:02.249Z,23.60
2019-05-26T10:26:01.389Z,24.00
2019-05-26T10:31:00.478Z,21.00
2019-05-26T10:33:31.581Z,20.20
2019-05-26T10:36:01.461Z,20.20
2019-05-26T10:38:31.378Z,21.40
2019-05-26T10:41:01.432Z,21.50
2019-05-26T10:43:44.467Z,22.70
2019-05-26T10:46:02.891Z,23.10
2019-05-26T10:48:33.134Z,22.70
2019-05-26T10:51:03.097Z,22.50
2019-05-26T10:56:02.737Z,21.10
2019-05-26T10:58:35.082Z,22.00
2019-05-26T11:01:05.865Z,21.50
2019-05-26T11:03:35.825Z,20.90
2019-05-26T11:06:05.756Z,21.00
2019-05-26T11:08:35.684Z,20.70
2019-05-26T11:11:05.605Z,20.80
2019-05-26T11:13:35.965Z,21.70
2019-05-26T11:16:06.222Z,21.70
2019-05-26T11:18:36.177Z,22.00
2019-05-26T11:21:06.092Z,22.20
2019-05-26T11:23:36.038Z,22.20
2019-05-26T11:26:06.168Z,22.20
2019-05-26T11:28:36.096Z,22.50
2019-05-26T11:31:06.009Z,21.10
2019-05-26T11:33:35.943Z,21.80
2019-05-26T11:36:05.855Z,21.50
2019-05-26T11:38:35.820Z,21.60
2019-05-26T11:41:05.742Z,21.80
2019-05-26T11:43:37.151Z,21.50
2019-05-26T11:46:07.113Z,21.50
2019-05-26T11:48:39.102Z,21.60
2019-05-26T11:51:08.613Z,21.50
2019-05-26T11:53:38.634Z,22.30
2019-05-26T11:56:08.558Z,22.40
2019-05-26T11:58:38.564Z,22.50
2019-05-26T12:01:08.469Z,22.50
2019-05-26T12:03:38.438Z,20.90
2019-05-26T12:06:10.694Z,21.00
2019-05-26T12:08:40.648Z,20.80
2019-05-26T12:11:10.569Z,21.30
2019-05-26T12:13:41.909Z,21.90
2019-05-26T12:16:13.166Z,22.00
2019-05-26T12:18:43.024Z,22.60
2019-05-26T12:21:12.998Z,21.50
2019-05-26T12:23:42.944Z,20.90
2019-05-26T12:26:12.866Z,20.90
2019-05-26T12:28:42.810Z,21.10
2019-05-26T12:31:12.720Z,20.90
2019-05-26T12:33:42.876Z,21.00
2019-05-26T12:36:12.785Z,21.90
2019-05-26T12:38:51.545Z,21.90
2019-05-26T12:41:22.559Z,21.50
2019-05-26T12:43:52.514Z,21.90
2019-05-26T12:46:22.411Z,22.30
2019-05-26T12:48:52.574Z,22.40
2019-05-26T12:51:22.552Z,22.70
2019-05-26T12:53:52.449Z,22.50
2019-05-26T12:56:22.711Z,22.30
2019-05-26T12:58:52.630Z,22.10
2019-05-26T13:01:22.579Z,23.10
2019-05-26T13:03:52.511Z,23.80
2019-05-26T13:06:22.462Z,24.50
2019-05-26T13:08:52.384Z,25.10
2019-05-26T13:11:22.980Z,24.50
2019-05-26T13:13:52.908Z,24.10
2019-05-26T13:16:38.123Z,23.80
2019-05-26T13:19:08.001Z,24.50
2019-05-26T13:21:37.923Z,24.90
2019-05-26T13:24:07.937Z,25.10
2019-05-26T13:26:37.829Z,24.10
2019-05-26T13:29:08.890Z,24.00
2019-05-26T13:31:40.479Z,24.10
2019-05-26T13:34:11.911Z,24.10
2019-05-26T13:36:41.797Z,24.50
2019-05-26T13:39:11.713Z,23.20
2019-05-26T13:41:41.669Z,22.90
2019-05-26T13:44:11.578Z,23.20
2019-05-26T13:46:41.588Z,22.90
2019-05-26T13:49:11.870Z,22.60
2019-05-26T13:51:41.844Z,23.10
2019-05-26T13:54:11.754Z,22.50
2019-05-26T13:56:41.719Z,23.00
2019-05-26T13:59:11.615Z,23.40
2019-05-26T14:01:41.627Z,23.60
2019-05-26T14:04:11.666Z,23.60
2019-05-26T14:06:41.617Z,23.20
2019-05-26T14:09:12.069Z,23.10
2019-05-26T14:11:41.982Z,22.90
2019-05-26T14:14:11.905Z,23.30
2019-05-26T14:16:43.927Z,22.70
2019-05-26T14:19:14.047Z,22.50
2019-05-26T14:21:44.190Z,23.40
2019-05-26T14:24:14.062Z,24.10
2019-05-26T14:26:44.008Z,23.50
2019-05-26T14:29:13.905Z,23.80
2019-05-26T14:31:43.783Z,23.60
2019-05-26T14:34:13.698Z,23.30
2019-05-26T14:36:43.548Z,22.90
2019-05-26T14:39:13.474Z,22.10
2019-05-26T14:41:43.411Z,22.30
2019-05-26T14:44:14.526Z,22.10
2019-05-26T14:46:44.470Z,22.00
2019-05-26T14:49:14.371Z,22.00
2019-05-26T14:51:44.616Z,21.70
2019-05-26T14:54:14.531Z,21.70
2019-05-26T14:56:44.432Z,21.70
2019-05-26T14:59:14.338Z,21.70
2019-05-26T15:01:44.283Z,21.80
2019-05-26T15:04:14.203Z,21.90
2019-05-26T15:06:44.147Z,21.70
2019-05-26T15:09:24.707Z,21.40
2019-05-26T15:11:45.624Z,21.70
2019-05-26T15:14:15.482Z,22.10
2019-05-26T15:16:45.432Z,22.20
2019-05-26T15:19:15.353Z,22.10
2019-05-26T15:21:45.286Z,22.20
2019-05-26T15:24:15.109Z,22.40
2019-05-26T15:26:45.005Z,22.20
2019-05-26T15:29:15.310Z,22.00
2019-05-26T15:31:45.229Z,22.00
2019-05-26T15:34:15.149Z,22.40
2019-05-26T15:36:45.102Z,22.20
2019-05-26T15:39:15.114Z,22.30
2019-05-26T15:41:45.036Z,22.00
2019-05-26T15:44:14.954Z,21.90
2019-05-26T15:46:44.811Z,21.70
2019-05-26T15:49:14.714Z,21.60
2019-05-26T15:51:44.974Z,21.60
2019-05-26T15:54:14.845Z,21.80
2019-05-26T15:56:44.795Z,21.60
2019-05-26T15:59:14.722Z,21.30
2019-05-26T16:01:50.643Z,21.60
2019-05-26T16:04:20.542Z,21.80
2019-05-26T16:06:50.460Z,21.90
2019-05-26T16:09:20.435Z,21.50
2019-05-26T16:11:50.685Z,21.30
2019-05-26T16:14:20.666Z,21.20
2019-05-26T16:16:51.435Z,21.30
2019-05-26T16:19:21.678Z,20.90
2019-05-26T16:21:51.600Z,21.10
2019-05-26T16:24:21.534Z,20.80
2019-05-26T16:26:51.490Z,20.80
2019-05-26T16:29:21.365Z,21.00
2019-05-26T16:31:52.134Z,21.00
2019-05-26T16:34:21.988Z,21.00
2019-05-26T16:39:35.832Z,20.60
2019-05-26T16:41:52.609Z,20.60
2019-05-26T16:44:22.541Z,20.50
2019-05-26T16:46:56.519Z,20.70
2019-05-26T16:49:24.052Z,20.60
2019-05-26T16:51:53.970Z,20.50
2019-05-26T16:54:23.918Z,20.40
2019-05-26T16:56:53.833Z,20.60
2019-05-26T16:59:23.729Z,20.40
2019-05-26T17:01:53.666Z,20.50
2019-05-26T17:04:23.537Z,20.80
2019-05-26T17:06:53.539Z,20.80
2019-05-26T17:09:23.465Z,20.70
2019-05-26T17:11:53.305Z,20.70
2019-05-26T17:14:23.298Z,20.60
2019-05-26T17:16:53.161Z,20.50
2019-05-26T17:19:23.081Z,20.70
2019-05-26T17:21:52.993Z,20.30
2019-05-26T17:24:22.855Z,20.30
2019-05-26T17:26:52.777Z,20.00
2019-05-26T17:29:22.713Z,20.10
2019-05-26T17:31:52.557Z,20.20
2019-05-26T17:36:51.714Z,20.20
2019-05-26T17:39:21.669Z,20.20
2019-05-26T17:41:51.570Z,20.50
2019-05-26T17:44:21.514Z,20.30
2019-05-26T17:46:51.432Z,20.10
2019-05-26T17:49:21.353Z,20.10
2019-05-26T17:51:51.289Z,19.90
2019-05-26T17:54:21.214Z,19.80
2019-05-26T17:56:51.127Z,19.80
2019-05-26T17:59:21.059Z,19.70
2019-05-26T18:01:50.994Z,20.00
2019-05-26T18:04:20.930Z,19.60
2019-05-26T18:06:50.890Z,19.60
2019-05-26T18:09:20.906Z,19.50
2019-05-26T18:11:50.746Z,19.40
2019-05-26T18:14:20.653Z,19.40
2019-05-26T18:16:50.470Z,19.20
2019-05-26T18:19:20.413Z,19.10
2019-05-26T18:21:50.323Z,19.20
2019-05-26T18:24:20.267Z,19.10
2019-05-26T18:26:50.303Z,19.00
2019-05-26T18:29:20.329Z,19.00
2019-05-26T18:31:50.472Z,18.90
2019-05-26T18:34:20.395Z,18.90
2019-05-26T18:36:50.385Z,18.70
2019-05-26T18:39:20.398Z,18.90
2019-05-26T18:41:50.389Z,18.70
2019-05-26T18:44:20.362Z,18.80
2019-05-26T18:46:53.466Z,18.60
2019-05-26T18:51:51.599Z,18.70
2019-05-26T18:54:21.530Z,18.60
2019-05-26T18:56:51.379Z,18.50
2019-05-26T18:59:21.518Z,18.40
2019-05-26T19:01:51.735Z,18.50
2019-05-26T19:04:21.646Z,18.60
2019-05-26T19:11:51.202Z,18.40
2019-05-26T19:14:21.435Z,18.10
2019-05-26T19:16:51.690Z,18.00
2019-05-26T19:19:21.681Z,18.00
2019-05-26T19:21:51.598Z,18.00
2019-05-26T19:24:21.738Z,18.10
2019-05-26T19:26:51.913Z,17.90
2019-05-26T19:29:22.937Z,17.70
2019-05-26T19:31:52.826Z,17.80
2019-05-26T19:34:22.854Z,17.60
2019-05-26T19:36:53.065Z,17.50
2019-05-26T19:39:22.978Z,17.60
2019-05-26T19:41:53.402Z,17.50
2019-05-26T19:44:31.266Z,17.50
2019-05-26T19:47:05.797Z,17.60
2019-05-26T19:49:36.005Z,17.00
2019-05-26T19:52:06.521Z,17.50
2019-05-26T19:54:36.941Z,17.50
2019-05-26T19:57:06.890Z,17.40
2019-05-26T19:59:37.697Z,17.20
2019-05-26T20:02:17.786Z,17.30
2019-05-26T20:04:39.602Z,17.10
2019-05-26T20:07:09.546Z,17.10
2019-05-26T20:12:09.034Z,16.70
2019-05-26T20:14:39.278Z,16.70
2019-05-26T20:17:09.409Z,16.80
2019-05-26T20:19:39.453Z,16.90
2019-05-26T20:22:09.626Z,16.70
2019-05-26T20:24:39.782Z,16.10
2019-05-26T20:27:10.904Z,16.50
2019-05-26T20:29:41.026Z,16.50
2019-05-26T20:32:11.034Z,16.50
2019-05-26T20:34:40.908Z,16.30
2019-05-26T20:37:10.844Z,16.40
2019-05-26T20:39:40.832Z,16.20
2019-05-26T20:42:10.734Z,16.20
2019-05-26T20:44:41.652Z,16.10
2019-05-26T20:47:11.581Z,16.00
2019-05-26T20:49:45.485Z,16.00
2019-05-26T20:52:13.072Z,16.00
2019-05-26T20:54:42.927Z,15.90
2019-05-26T20:57:12.839Z,15.90
2019-05-26T20:59:42.793Z,15.80
2019-05-26T21:02:12.739Z,15.80
2019-05-26T21:04:42.997Z,15.80
2019-05-26T21:07:12.921Z,15.80
2019-05-26T21:09:42.768Z,15.80
2019-05-26T21:12:12.700Z,15.70
2019-05-26T21:14:42.610Z,15.70
2019-05-26T21:17:12.542Z,15.60
2019-05-26T21:19:42.498Z,15.50
2019-05-26T21:22:12.442Z,15.40
2019-05-26T21:24:42.278Z,15.40
2019-05-26T21:27:12.225Z,15.30
2019-05-26T21:29:42.226Z,15.20
2019-05-26T21:32:12.177Z,15.20
2019-05-26T21:34:42.094Z,15.20
2019-05-26T21:37:12.031Z,15.20
2019-05-26T21:39:43.043Z,15.10
2019-05-26T21:42:15.933Z,15.00
2019-05-26T21:44:44.480Z,15.00
2019-05-26T21:47:14.412Z,14.90
2019-05-26T21:49:44.305Z,14.90
2019-05-26T21:52:14.595Z,14.90
2019-05-26T21:54:44.515Z,14.90
2019-05-26T21:57:14.477Z,14.80
2019-05-26T21:59:44.371Z,14.90
2019-05-26T22:02:14.286Z,15.00
2019-05-26T22:04:44.205Z,14.90
2019-05-26T22:07:14.370Z,14.80
2019-05-26T22:09:44.284Z,14.80
2019-05-26T22:12:14.267Z,14.90
2019-05-26T22:14:44.133Z,14.80
2019-05-26T22:17:14.007Z,14.70
2019-05-26T22:19:43.927Z,14.70
2019-05-26T22:22:13.767Z,14.60
2019-05-26T22:24:43.699Z,14.40
2019-05-26T22:27:13.598Z,14.30
2019-05-26T22:29:43.506Z,14.30
2019-05-26T22:32:13.395Z,14.30
2019-05-26T22:34:43.622Z,14.30
2019-05-26T22:37:13.506Z,14.30
2019-05-26T22:39:48.848Z,14.30
2019-05-26T22:42:18.750Z,14.20
2019-05-26T22:44:48.668Z,14.20
2019-05-26T22:47:18.526Z,14.20
2019-05-26T22:49:48.474Z,14.10
2019-05-26T22:52:18.375Z,13.90
2019-05-26T22:54:48.346Z,13.90
2019-05-26T22:57:18.234Z,14.00
2019-05-26T22:59:48.173Z,13.90
2019-05-26T23:02:18.100Z,13.80
2019-05-26T23:04:48.017Z,13.80
2019-05-26T23:07:17.904Z,13.70
2019-05-26T23:09:47.844Z,13.70
2019-05-26T23:12:17.753Z,13.70
2019-05-26T23:14:47.682Z,13.70
2019-05-26T23:17:17.621Z,13.80
2019-05-26T23:19:47.477Z,13.80
2019-05-26T23:22:17.306Z,13.90
2019-05-26T23:24:47.204Z,13.80
2019-05-26T23:27:17.170Z,13.80
2019-05-26T23:29:47.126Z,13.80
2019-05-26T23:32:17.027Z,13.80
2019-05-26T23:34:46.893Z,13.60
2019-05-26T23:37:16.771Z,13.50
2019-05-26T23:39:46.617Z,13.50
2019-05-26T23:42:16.446Z,13.50
2019-05-26T23:44:46.298Z,13.40
2019-05-26T23:47:16.203Z,13.40
2019-05-26T23:49:46.551Z,13.30
2019-05-26T23:52:19.346Z,13.20
2019-05-26T23:54:48.005Z,13.10
2019-05-26T23:57:17.931Z,13.10
2019-05-26T23:59:47.869Z,13.20
